createdAt,value
2023-03-12T00:02:22.167Z,73.30
2023-03-12T00:04:51.947Z,72.83
2023-03-12T00:07:21.452Z,72.72
2023-03-12T00:09:51.040Z,73.00
2023-03-12T00:12:20.324Z,73.13
2023-03-12T00:14:49.485Z,72.57
2023-03-12T00:17:18.770Z,71.94
2023-03-12T00:19:53.316Z,72.18
2023-03-12T00:22:23.736Z,72.39
2023-03-12T00:24:54.485Z,72.30
2023-03-12T00:27:24.724Z,72.32
2023-03-12T00:29:54.454Z,72.42
2023-03-12T00:32:24.652Z,72.68
2023-03-12T00:34:56.854Z,72.84
2023-03-12T00:37:26.403Z,72.59
2023-03-12T00:39:55.947Z,72.39
2023-03-12T00:42:25.005Z,72.58
2023-03-12T00:44:54.375Z,72.94
2023-03-12T00:47:23.702Z,73.07
2023-03-12T00:49:52.913Z,73.17
2023-03-12T00:52:22.278Z,73.39
2023-03-12T00:54:51.521Z,73.44
2023-03-12T00:57:20.594Z,73.35
2023-03-12T00:59:50.086Z,73.12
2023-03-12T01:02:20.024Z,73.19
2023-03-12T01:04:49.372Z,73.38
2023-03-12T01:07:18.984Z,73.28
2023-03-12T01:09:48.193Z,73.02
2023-03-12T01:12:17.666Z,73.02
2023-03-12T01:14:46.863Z,73.00
2023-03-12T01:17:16.268Z,72.56
2023-03-12T01:19:45.724Z,72.62
2023-03-12T01:22:15.389Z,72.57
2023-03-12T01:24:44.704Z,72.54
2023-03-12T01:27:14.156Z,71.68
2023-03-12T01:29:43.354Z,70.79
2023-03-12T01:32:12.993Z,70.86
2023-03-12T01:34:42.058Z,71.16
2023-03-12T01:37:11.568Z,71.24
2023-03-12T01:39:40.955Z,71.28
2023-03-12T01:42:10.516Z,71.57
2023-03-12T01:44:53.096Z,72.02
2023-03-12T01:47:22.723Z,72.19
2023-03-12T01:49:54.237Z,71.95
2023-03-12T01:52:36.990Z,71.87
2023-03-12T01:55:15.809Z,72.12
2023-03-12T01:57:55.707Z,72.44
2023-03-12T02:00:28.122Z,72.37
2023-03-12T02:03:03.398Z,72.36
2023-03-12T02:05:44.325Z,72.81
2023-03-12T02:08:15.463Z,73.35
2023-03-12T02:10:45.782Z,73.82
2023-03-12T02:13:15.140Z,73.84
2023-03-12T02:15:44.223Z,74.10
2023-03-12T02:18:18.035Z,74.16
2023-03-12T02:21:06.051Z,73.84
2023-03-12T02:24:02.050Z,73.50
2023-03-12T02:26:31.800Z,73.26
2023-03-12T02:29:01.723Z,73.20
2023-03-12T02:31:37.900Z,72.81
2023-03-12T02:34:07.172Z,72.37
2023-03-12T02:36:37.506Z,72.38
2023-03-12T02:39:07.065Z,72.68
2023-03-12T02:41:58.277Z,72.52
2023-03-12T02:44:33.868Z,72.01
2023-03-12T02:47:03.619Z,72.15
2023-03-12T02:49:34.490Z,72.66
2023-03-12T02:52:04.968Z,73.05
2023-03-12T02:54:34.439Z,73.07
2023-03-12T02:57:03.483Z,73.48
2023-03-12T02:59:32.398Z,73.68
2023-03-12T03:02:02.570Z,73.60
2023-03-12T03:04:32.661Z,73.04
2023-03-12T03:07:02.379Z,72.78
2023-03-12T03:09:31.537Z,73.04
2023-03-12T03:12:01.427Z,73.12
2023-03-12T03:14:30.451Z,72.78
2023-03-12T03:16:59.969Z,72.77
2023-03-12T03:19:29.056Z,73.11
2023-03-12T03:21:59.149Z,73.43
2023-03-12T03:24:28.515Z,73.66
2023-03-12T03:26:58.125Z,73.73
2023-03-12T03:29:27.291Z,73.94
2023-03-12T03:31:56.625Z,74.59
2023-03-12T03:34:25.891Z,74.10
2023-03-12T03:36:55.010Z,72.94
2023-03-12T03:39:25.821Z,72.28
2023-03-12T03:41:54.995Z,72.21
2023-03-12T03:44:24.526Z,72.13
2023-03-12T03:46:55.838Z,71.76
2023-03-12T03:49:25.375Z,71.63
2023-03-12T03:51:54.563Z,71.73
2023-03-12T03:54:23.952Z,71.82
2023-03-12T03:56:53.251Z,71.93
2023-03-12T03:59:22.663Z,71.81
2023-03-12T04:01:51.845Z,71.71
2023-03-12T04:04:21.597Z,71.83
2023-03-12T04:06:50.758Z,72.32
2023-03-12T04:09:20.091Z,72.54
2023-03-12T04:11:49.485Z,72.68
2023-03-12T04:14:18.962Z,73.11
2023-03-12T04:16:48.377Z,73.02
2023-03-12T04:19:18.415Z,72.30
2023-03-12T04:21:48.245Z,71.51
2023-03-12T04:24:18.231Z,71.22
2023-03-12T04:26:47.796Z,71.41
2023-03-12T04:29:17.155Z,72.14
2023-03-12T04:31:47.014Z,72.57
2023-03-12T04:34:16.296Z,72.48
2023-03-12T04:36:47.204Z,72.76
2023-03-12T04:39:20.742Z,73.08
2023-03-12T04:41:50.054Z,72.97
2023-03-12T04:44:18.921Z,72.84
2023-03-12T04:46:48.151Z,72.92
2023-03-12T04:49:17.496Z,72.99
2023-03-12T04:51:46.689Z,73.28
2023-03-12T04:54:15.774Z,73.84
2023-03-12T04:56:44.756Z,74.03
2023-03-12T04:59:14.855Z,74.27
2023-03-12T05:01:44.233Z,74.59
2023-03-12T05:04:13.488Z,74.93
2023-03-12T05:06:43.100Z,74.75
2023-03-12T05:09:12.299Z,74.37
2023-03-12T05:11:41.330Z,74.58
2023-03-12T05:14:12.464Z,74.42
2023-03-12T05:16:42.004Z,74.04
2023-03-12T05:19:11.720Z,73.81
2023-03-12T05:21:44.902Z,73.92
2023-03-12T05:24:14.047Z,74.07
2023-03-12T05:26:44.115Z,74.01
2023-03-12T05:29:13.562Z,73.34
2023-03-12T05:31:42.981Z,73.25
2023-03-12T05:34:13.945Z,73.75
2023-03-12T05:36:43.951Z,73.94
2023-03-12T05:39:12.988Z,73.82
2023-03-12T05:41:42.216Z,73.68
2023-03-12T05:44:14.234Z,73.50
2023-03-12T05:46:44.580Z,73.13
2023-03-12T05:49:13.637Z,72.22
2023-03-12T05:51:44.111Z,71.45
2023-03-12T05:54:13.723Z,71.48
2023-03-12T05:56:43.012Z,72.01
2023-03-12T05:59:12.498Z,72.66
2023-03-12T06:01:43.076Z,72.96
2023-03-12T06:04:12.519Z,72.73
2023-03-12T06:06:41.704Z,73.01
2023-03-12T06:09:10.897Z,73.17
2023-03-12T06:11:40.137Z,72.62
2023-03-12T06:14:09.528Z,72.12
2023-03-12T06:16:38.694Z,71.86
2023-03-12T06:19:08.612Z,72.17
2023-03-12T06:21:38.554Z,72.81
2023-03-12T06:24:08.408Z,73.13
2023-03-12T06:26:37.930Z,73.13
2023-03-12T06:29:07.073Z,73.69
2023-03-12T06:31:38.737Z,74.36
2023-03-12T06:34:08.652Z,74.90
2023-03-12T06:36:38.082Z,74.96
2023-03-12T06:39:07.492Z,75.19
2023-03-12T06:41:37.139Z,75.69
2023-03-12T06:44:06.756Z,76.17
2023-03-12T06:46:36.202Z,75.99
2023-03-12T06:49:06.018Z,75.85
2023-03-12T06:51:35.094Z,75.92
2023-03-12T06:54:04.108Z,76.10
2023-03-12T06:56:33.519Z,76.02
2023-03-12T06:59:02.463Z,75.74
2023-03-12T07:01:31.461Z,75.40
2023-03-12T07:04:00.765Z,75.41
2023-03-12T07:06:29.894Z,74.87
2023-03-12T07:08:59.061Z,74.17
2023-03-12T07:11:28.288Z,73.83
2023-03-12T07:13:57.908Z,73.75
2023-03-12T07:16:27.751Z,72.97
2023-03-12T07:18:57.662Z,72.00
2023-03-12T07:21:27.435Z,71.08
2023-03-12T07:23:56.637Z,70.45
2023-03-12T07:26:25.869Z,69.93
2023-03-12T07:28:55.147Z,69.04
2023-03-12T07:31:24.170Z,68.27
2023-03-12T07:33:53.492Z,68.16
2023-03-12T07:36:22.743Z,68.87
2023-03-12T07:38:53.598Z,69.29
2023-03-12T07:41:23.363Z,68.91
2023-03-12T07:43:52.832Z,68.72
2023-03-12T07:46:22.725Z,68.85
2023-03-12T07:48:52.259Z,69.26
2023-03-12T07:51:22.249Z,69.77
2023-03-12T07:53:51.268Z,70.64
2023-03-12T07:56:20.740Z,70.72
2023-03-12T07:58:50.039Z,71.23
2023-03-12T08:01:19.514Z,71.66
2023-03-12T08:03:49.213Z,71.49
2023-03-12T08:06:19.564Z,71.48
2023-03-12T08:08:49.569Z,71.87
2023-03-12T08:11:20.310Z,72.09
2023-03-12T08:13:49.953Z,72.02
2023-03-12T08:16:19.415Z,71.95
2023-03-12T08:18:48.628Z,72.12
2023-03-12T08:21:18.225Z,72.22
2023-03-12T08:23:47.483Z,72.17
2023-03-12T08:26:16.842Z,71.74
2023-03-12T08:28:46.112Z,69.94
2023-03-12T08:31:15.699Z,68.54
2023-03-12T08:33:47.402Z,68.11
2023-03-12T08:36:16.878Z,67.82
2023-03-12T08:38:45.943Z,67.39
2023-03-12T08:41:15.766Z,63.52
2023-03-12T08:43:44.999Z,58.09
2023-03-12T08:46:14.301Z,52.96
2023-03-12T08:48:43.644Z,48.39
2023-03-12T08:51:14.856Z,47.91
2023-03-12T08:53:45.749Z,45.29
2023-03-12T08:56:15.338Z,42.54
2023-03-12T08:58:45.824Z,39.74
2023-03-12T09:01:15.622Z,39.46
2023-03-12T09:03:44.959Z,39.08
2023-03-12T09:06:17.567Z,39.83
2023-03-12T09:08:48.785Z,39.04
2023-03-12T09:11:19.528Z,37.41
2023-03-12T09:16:38.318Z,35.19
2023-03-12T09:19:07.522Z,34.90
2023-03-12T09:21:37.272Z,34.12
2023-03-12T09:24:08.163Z,33.24
2023-03-12T09:26:37.229Z,32.67
2023-03-12T09:29:07.180Z,31.78
2023-03-12T09:31:36.972Z,33.22
2023-03-12T09:34:07.392Z,34.42
2023-03-12T09:36:36.731Z,34.82
2023-03-12T09:39:06.708Z,35.07
2023-03-12T09:41:40.510Z,35.56
2023-03-12T09:44:25.023Z,34.60
2023-03-12T09:47:02.965Z,32.88
2023-03-12T09:49:47.428Z,32.05
2023-03-12T09:52:26.486Z,30.26
2023-03-12T09:55:07.153Z,29.69
2023-03-12T09:57:37.131Z,28.03
2023-03-12T10:00:12.851Z,26.84
2023-03-12T10:03:17.103Z,27.00
2023-03-12T10:05:51.909Z,27.49
2023-03-12T10:08:36.866Z,28.68
2023-03-12T10:11:42.708Z,28.90
2023-03-12T10:14:46.155Z,29.63
2023-03-12T10:17:44.037Z,30.67
2023-03-12T10:20:35.461Z,31.63
2023-03-12T10:23:24.195Z,31.30
2023-03-12T10:26:04.290Z,30.36
2023-03-12T10:28:51.103Z,30.65
2023-03-12T10:31:32.754Z,31.71
2023-03-12T10:34:04.086Z,31.31
2023-03-12T10:36:40.956Z,28.91
2023-03-12T10:39:19.698Z,26.42
2023-03-12T10:41:49.722Z,26.64
2023-03-12T10:44:22.815Z,27.15
2023-03-12T10:47:01.027Z,27.30
2023-03-12T10:49:34.773Z,25.63
2023-03-12T10:52:13.490Z,24.06
2023-03-12T10:54:45.788Z,22.96
2023-03-12T10:57:16.892Z,22.99
2023-03-12T10:59:49.239Z,24.07
2023-03-12T11:02:40.839Z,24.68
2023-03-12T11:05:27.070Z,23.92
2023-03-12T11:07:57.665Z,22.99
2023-03-12T11:10:34.781Z,23.11
2023-03-12T11:13:37.762Z,22.36
2023-03-12T11:16:21.338Z,21.71
2023-03-12T11:19:04.662Z,20.95
2023-03-12T11:21:38.785Z,20.57
2023-03-12T11:24:13.612Z,21.55
2023-03-12T11:26:54.661Z,21.11
2023-03-12T11:29:41.467Z,20.95
2023-03-12T11:32:20.324Z,21.46
2023-03-12T11:34:51.542Z,20.74
2023-03-12T11:38:13.223Z,20.18
2023-03-12T11:40:45.284Z,19.84
2023-03-12T11:43:42.706Z,20.20
2023-03-12T11:46:26.714Z,21.78
2023-03-12T11:49:08.717Z,21.75
2023-03-12T11:51:54.395Z,21.87
2023-03-12T11:54:42.094Z,21.26
2023-03-12T11:57:27.441Z,20.45
2023-03-12T12:00:29.049Z,19.80
2023-03-12T12:03:17.745Z,19.52
2023-03-12T12:06:01.066Z,19.25
2023-03-12T12:08:44.411Z,19.72
2023-03-12T12:11:43.177Z,19.38
2023-03-12T12:14:40.778Z,18.64
2023-03-12T12:17:28.689Z,18.68
2023-03-12T12:20:19.950Z,17.68
2023-03-12T12:22:58.438Z,17.52
2023-03-12T12:25:42.785Z,17.03
2023-03-12T12:28:37.821Z,16.68
2023-03-12T12:31:22.249Z,16.70
2023-03-12T12:33:54.524Z,16.78
2023-03-12T12:36:28.176Z,16.95
2023-03-12T12:39:06.715Z,16.44
2023-03-12T12:41:48.544Z,16.79
2023-03-12T12:44:24.696Z,17.27
2023-03-12T12:47:02.089Z,17.46
2023-03-12T12:49:53.137Z,17.95
2023-03-12T12:52:23.494Z,17.89
2023-03-12T12:55:08.331Z,17.42
2023-03-12T12:57:46.517Z,17.55
2023-03-12T13:00:43.872Z,18.02
2023-03-12T13:03:25.615Z,17.75
2023-03-12T13:06:03.301Z,17.23
2023-03-12T13:08:36.801Z,17.37
2023-03-12T13:11:24.214Z,17.16
2023-03-12T13:14:16.585Z,17.24
2023-03-12T13:16:47.848Z,17.00
2023-03-12T13:19:17.542Z,17.37
2023-03-12T13:21:59.730Z,17.80
2023-03-12T13:24:52.658Z,18.04
2023-03-12T13:27:32.622Z,18.18
2023-03-12T13:30:48.926Z,17.56
2023-03-12T13:33:36.909Z,17.77
2023-03-12T13:36:12.294Z,17.34
2023-03-12T13:39:03.521Z,17.06
2023-03-12T13:41:50.790Z,17.22
2023-03-12T13:44:32.399Z,16.92
2023-03-12T13:47:27.929Z,16.83
2023-03-12T13:50:05.061Z,16.82
2023-03-12T13:52:41.699Z,16.81
2023-03-12T13:55:29.302Z,16.90
2023-03-12T13:58:08.264Z,16.73
2023-03-12T14:01:01.256Z,16.50
2023-03-12T14:03:43.482Z,16.45
2023-03-12T14:06:20.776Z,16.01
2023-03-12T14:09:08.890Z,16.24
2023-03-12T14:12:09.402Z,16.27
2023-03-12T14:15:00.222Z,16.58
2023-03-12T14:17:32.466Z,16.48
2023-03-12T14:20:08.089Z,16.56
2023-03-12T14:22:40.626Z,16.68
2023-03-12T14:25:25.283Z,16.22
2023-03-12T14:27:54.660Z,16.32
2023-03-12T14:30:29.677Z,16.39
2023-03-12T14:33:02.556Z,16.77
2023-03-12T14:35:45.562Z,16.49
2023-03-12T14:38:22.585Z,16.56
2023-03-12T14:41:01.315Z,16.47
2023-03-12T14:43:35.812Z,16.68
2023-03-12T14:46:13.861Z,16.42
2023-03-12T14:48:42.964Z,15.75
2023-03-12T14:51:25.602Z,15.74
2023-03-12T14:53:56.234Z,15.60
2023-03-12T14:56:32.847Z,15.96
2023-03-12T14:59:28.459Z,16.28
2023-03-12T15:02:11.917Z,16.67
2023-03-12T15:04:42.866Z,17.05
2023-03-12T15:07:16.320Z,17.53
2023-03-12T15:09:53.423Z,18.21
2023-03-12T15:12:30.756Z,19.09
2023-03-12T15:15:09.166Z,19.13
2023-03-12T15:17:38.736Z,19.48
2023-03-12T15:20:16.859Z,19.39
2023-03-12T15:22:46.474Z,19.49
2023-03-12T15:25:36.533Z,19.38
2023-03-12T15:28:27.313Z,19.82
2023-03-12T15:31:16.030Z,19.89
2023-03-12T15:33:46.022Z,20.14
2023-03-12T15:36:15.179Z,20.29
2023-03-12T15:38:54.134Z,20.74
2023-03-12T15:41:28.702Z,20.40
2023-03-12T15:44:00.262Z,20.48
2023-03-12T15:46:29.620Z,20.96
2023-03-12T15:49:01.409Z,21.09
2023-03-12T15:51:36.931Z,20.98
2023-03-12T15:54:14.495Z,20.92
2023-03-12T15:56:43.942Z,21.88
2023-03-12T15:59:29.164Z,21.76
2023-03-12T16:01:59.090Z,21.92
2023-03-12T16:04:28.394Z,22.11
2023-03-12T16:06:57.570Z,22.24
2023-03-12T16:09:29.085Z,22.17
2023-03-12T16:11:58.404Z,22.53
2023-03-12T16:14:35.288Z,22.72
2023-03-12T16:17:04.720Z,22.90
2023-03-12T16:19:35.082Z,23.41
2023-03-12T16:22:04.732Z,23.92
2023-03-12T16:24:33.908Z,24.40
2023-03-12T16:27:07.896Z,24.88
2023-03-12T16:29:39.822Z,25.16
2023-03-12T16:32:17.374Z,25.33
2023-03-12T16:34:46.802Z,25.70
2023-03-12T16:37:16.279Z,25.84
2023-03-12T16:39:46.872Z,26.04
2023-03-12T16:42:19.127Z,26.35
2023-03-12T16:44:48.636Z,26.52
2023-03-12T16:47:18.817Z,26.77
2023-03-12T16:49:48.966Z,27.08
2023-03-12T16:52:28.922Z,27.41
2023-03-12T16:54:58.534Z,28.02
2023-03-12T16:57:33.366Z,28.21
2023-03-12T17:00:08.312Z,28.46
2023-03-12T17:02:37.803Z,29.85
2023-03-12T17:05:08.775Z,30.69
2023-03-12T17:07:38.401Z,31.67
2023-03-12T17:10:08.198Z,32.62
2023-03-12T17:12:41.022Z,33.40
2023-03-12T17:15:34.444Z,34.10
2023-03-12T17:18:05.313Z,34.78
2023-03-12T17:20:37.985Z,35.54
2023-03-12T17:23:09.818Z,36.20
2023-03-12T17:25:42.453Z,36.77
2023-03-12T17:28:13.231Z,37.29
2023-03-12T17:30:42.906Z,37.75
2023-03-12T17:33:15.325Z,38.07
2023-03-12T17:35:46.706Z,38.29
2023-03-12T17:38:17.809Z,38.63
2023-03-12T17:40:47.564Z,39.07
2023-03-12T17:43:17.908Z,39.27
2023-03-12T17:45:47.697Z,39.95
2023-03-12T17:48:18.114Z,40.40
2023-03-12T17:50:47.724Z,40.73
2023-03-12T17:53:17.848Z,40.91
2023-03-12T17:55:48.881Z,41.47
2023-03-12T17:58:19.181Z,41.75
2023-03-12T18:00:50.184Z,41.83
2023-03-12T18:03:19.489Z,42.06
2023-03-12T18:05:51.822Z,42.14
2023-03-12T18:08:21.372Z,42.07
2023-03-12T18:10:51.481Z,42.06
2023-03-12T18:13:20.847Z,42.26
2023-03-12T18:15:54.912Z,42.46
2023-03-12T18:18:26.051Z,42.78
2023-03-12T18:20:55.464Z,43.24
2023-03-12T18:23:26.010Z,43.06
2023-03-12T18:25:56.555Z,42.95
2023-03-12T18:28:26.273Z,43.05
2023-03-12T18:30:55.832Z,43.24
2023-03-12T18:33:25.714Z,43.31
2023-03-12T18:35:58.912Z,43.66
2023-03-12T18:38:29.711Z,44.25
2023-03-12T18:41:11.460Z,44.81
2023-03-12T18:43:42.443Z,45.25
2023-03-12T18:46:13.712Z,45.77
2023-03-12T18:48:44.384Z,46.17
2023-03-12T18:51:15.725Z,46.37
2023-03-12T18:53:49.247Z,46.46
2023-03-12T18:56:19.024Z,46.75
2023-03-12T18:58:48.246Z,46.77
2023-03-12T19:01:17.662Z,47.16
2023-03-12T19:03:47.198Z,47.40
2023-03-12T19:06:17.895Z,47.42
2023-03-12T19:08:47.731Z,47.76
2023-03-12T19:11:18.048Z,48.01
2023-03-12T19:13:53.074Z,48.34
2023-03-12T19:16:23.104Z,48.88
2023-03-12T19:18:53.570Z,49.19
2023-03-12T19:21:23.948Z,49.01
2023-03-12T19:23:55.023Z,48.57
2023-03-12T19:26:25.567Z,48.66
2023-03-12T19:28:55.294Z,48.59
2023-03-12T19:31:26.951Z,48.99
2023-03-12T19:33:56.925Z,49.35
2023-03-12T19:36:27.171Z,49.05
2023-03-12T19:38:57.682Z,49.50
2023-03-12T19:41:27.144Z,50.09
2023-03-12T19:43:57.380Z,50.38
2023-03-12T19:46:27.831Z,50.74
2023-03-12T19:48:57.999Z,51.23
2023-03-12T19:51:28.620Z,51.37
2023-03-12T19:53:58.753Z,51.30
2023-03-12T19:56:29.838Z,50.96
2023-03-12T19:59:00.909Z,50.77
2023-03-12T20:01:31.298Z,50.85
2023-03-12T20:04:01.318Z,51.13
2023-03-12T20:06:31.891Z,51.85
2023-03-12T20:09:03.337Z,52.22
2023-03-12T20:11:37.013Z,52.58
2023-03-12T20:14:07.134Z,52.57
2023-03-12T20:16:38.127Z,52.58
2023-03-12T20:19:09.525Z,52.04
2023-03-12T20:21:41.193Z,52.21
2023-03-12T20:24:15.469Z,52.23
2023-03-12T20:26:46.305Z,52.24
2023-03-12T20:29:17.160Z,52.38
2023-03-12T20:31:49.506Z,52.32
2023-03-12T20:34:23.338Z,52.51
2023-03-12T20:36:55.548Z,52.56
2023-03-12T20:39:26.473Z,53.13
2023-03-12T20:41:57.708Z,53.65
2023-03-12T20:44:28.786Z,53.84
2023-03-12T20:46:59.786Z,53.32
2023-03-12T20:49:30.919Z,53.17
2023-03-12T20:52:01.443Z,53.11
2023-03-12T20:54:33.805Z,52.94
2023-03-12T20:57:04.643Z,53.12
2023-03-12T20:59:35.227Z,53.39
2023-03-12T21:02:05.807Z,53.50
2023-03-12T21:04:35.705Z,53.86
2023-03-12T21:07:06.652Z,54.16
2023-03-12T21:09:37.655Z,54.76
2023-03-12T21:12:08.093Z,54.88
2023-03-12T21:14:40.927Z,54.91
2023-03-12T21:17:14.252Z,55.26
2023-03-12T21:19:44.939Z,55.65
2023-03-12T21:22:15.398Z,55.66
2023-03-12T21:24:45.559Z,55.55
2023-03-12T21:27:15.296Z,55.54
2023-03-12T21:29:45.409Z,55.45
2023-03-12T21:32:15.414Z,55.22
2023-03-12T21:34:45.187Z,55.49
2023-03-12T21:37:17.297Z,55.80
2023-03-12T21:39:46.611Z,56.23
2023-03-12T21:42:16.359Z,56.64
2023-03-12T21:44:45.723Z,56.46
2023-03-12T21:47:15.200Z,56.39
2023-03-12T21:49:44.085Z,56.51
2023-03-12T21:52:13.854Z,56.74
2023-03-12T21:54:42.855Z,56.82
2023-03-12T21:57:12.214Z,56.83
2023-03-12T21:59:42.131Z,56.69
2023-03-12T22:02:15.878Z,56.06
2023-03-12T22:04:45.948Z,55.80
2023-03-12T22:07:15.881Z,55.76
2023-03-12T22:09:45.651Z,55.85
2023-03-12T22:12:14.600Z,55.82
2023-03-12T22:14:44.442Z,55.81
2023-03-12T22:17:14.199Z,56.02
2023-03-12T22:19:43.812Z,55.82
2023-03-12T22:22:12.894Z,55.80
2023-03-12T22:24:42.106Z,55.74
2023-03-12T22:27:12.649Z,56.01
2023-03-12T22:29:44.369Z,56.55
2023-03-12T22:32:13.621Z,57.06
2023-03-12T22:34:43.251Z,57.26
2023-03-12T22:37:12.961Z,57.39
2023-03-12T22:39:43.867Z,57.31
2023-03-12T22:42:13.108Z,57.19
2023-03-12T22:44:42.416Z,57.27
2023-03-12T22:47:12.155Z,57.37
2023-03-12T22:49:41.328Z,57.36
2023-03-12T22:52:10.174Z,57.04
2023-03-12T22:54:38.842Z,57.03
2023-03-12T22:57:07.835Z,57.30
2023-03-12T22:59:38.788Z,57.83
2023-03-12T23:02:07.475Z,58.24
2023-03-12T23:04:36.556Z,58.46
2023-03-12T23:07:14.388Z,58.55
2023-03-12T23:09:47.541Z,58.46
2023-03-12T23:12:16.404Z,58.34
2023-03-12T23:14:45.386Z,58.14
2023-03-12T23:17:14.569Z,57.91
2023-03-12T23:19:44.409Z,57.63
2023-03-12T23:22:13.351Z,57.27
2023-03-12T23:24:42.634Z,57.06
2023-03-12T23:27:11.702Z,57.38
2023-03-12T23:29:40.604Z,57.83
2023-03-12T23:32:09.685Z,58.18
2023-03-12T23:34:38.877Z,58.01
2023-03-12T23:37:08.699Z,58.09
2023-03-12T23:39:53.426Z,58.19
2023-03-12T23:42:23.331Z,58.70
2023-03-12T23:44:52.078Z,59.06
2023-03-12T23:47:21.222Z,58.90
2023-03-12T23:49:50.631Z,58.52
2023-03-12T23:52:19.638Z,58.66
2023-03-12T23:54:48.907Z,58.88
2023-03-12T23:57:17.797Z,59.30
2023-03-12T23:59:46.826Z,59.23
